createdAt,value
2022-09-09T00:01:39.990Z,65.75
2022-09-09T00:04:06.196Z,65.75
2022-09-09T00:06:32.363Z,65.86
2022-09-09T00:08:58.578Z,65.92
2022-09-09T00:11:29.367Z,65.87
2022-09-09T00:13:57.436Z,65.93
2022-09-09T00:16:23.667Z,65.94
2022-09-09T00:18:49.857Z,66.01
2022-09-09T00:21:16.016Z,66.09
2022-09-09T00:23:42.112Z,66.27
2022-09-09T00:26:08.305Z,66.54
2022-09-09T00:28:34.604Z,66.78
2022-09-09T00:31:00.815Z,66.95
2022-09-09T00:33:26.956Z,67.15
2022-09-09T00:35:53.065Z,67.46
2022-09-09T00:38:19.171Z,67.63
2022-09-09T00:40:45.259Z,67.46
2022-09-09T00:43:11.384Z,67.52
2022-09-09T00:45:37.491Z,67.43
2022-09-09T00:48:03.594Z,67.48
2022-09-09T00:50:29.753Z,67.28
2022-09-09T00:52:55.850Z,67.24
2022-09-09T00:55:21.956Z,67.16
2022-09-09T00:57:48.586Z,67.06
2022-09-09T01:00:14.702Z,66.98
2022-09-09T01:02:40.844Z,67.03
2022-09-09T01:05:07.006Z,66.83
2022-09-09T01:07:33.104Z,66.96
2022-09-09T01:09:59.200Z,66.99
2022-09-09T01:12:25.305Z,67.02
2022-09-09T01:14:51.397Z,67.04
2022-09-09T01:17:17.537Z,67.09
2022-09-09T01:19:43.678Z,67.16
2022-09-09T01:22:09.756Z,67.18
2022-09-09T01:24:35.868Z,67.27
2022-09-09T01:27:02.007Z,67.23
2022-09-09T01:29:28.106Z,67.30
2022-09-09T01:31:54.191Z,67.47
2022-09-09T01:34:20.312Z,67.31
2022-09-09T01:36:46.397Z,67.45
2022-09-09T01:39:12.508Z,67.52
2022-09-09T01:41:38.918Z,67.56
2022-09-09T01:44:05.017Z,67.69
2022-09-09T01:46:31.195Z,67.87
2022-09-09T01:48:57.349Z,67.97
2022-09-09T01:51:23.437Z,67.97
2022-09-09T01:53:49.534Z,68.03
2022-09-09T01:56:15.637Z,68.12
2022-09-09T01:58:43.600Z,68.04
2022-09-09T02:01:09.724Z,68.01
2022-09-09T02:03:36.237Z,67.90
2022-09-09T02:06:02.322Z,67.99
2022-09-09T02:08:28.400Z,68.08
2022-09-09T02:10:54.508Z,68.22
2022-09-09T02:13:20.592Z,68.08
2022-09-09T02:15:46.694Z,68.11
2022-09-09T02:18:13.286Z,68.20
2022-09-09T02:20:39.413Z,68.33
2022-09-09T02:23:05.531Z,68.45
2022-09-09T02:25:31.672Z,68.61
2022-09-09T02:27:57.753Z,68.71
2022-09-09T02:30:23.870Z,68.62
2022-09-09T02:32:50.006Z,68.88
2022-09-09T02:35:16.094Z,68.85
2022-09-09T02:37:42.181Z,68.92
2022-09-09T02:40:08.317Z,68.95
2022-09-09T02:42:34.452Z,68.84
2022-09-09T02:45:00.538Z,69.03
2022-09-09T02:47:26.670Z,68.97
2022-09-09T02:49:52.783Z,68.96
2022-09-09T02:52:18.871Z,68.89
2022-09-09T02:54:44.964Z,69.20
2022-09-09T02:57:11.061Z,69.17
2022-09-09T02:59:37.164Z,69.23
2022-09-09T03:02:03.340Z,69.40
2022-09-09T03:04:29.466Z,69.41
2022-09-09T03:06:55.566Z,69.49
2022-09-09T03:09:21.682Z,69.56
2022-09-09T03:11:47.770Z,69.72
2022-09-09T03:14:13.863Z,69.82
2022-09-09T03:16:40.011Z,69.92
2022-09-09T03:19:06.147Z,70.01
2022-09-09T03:21:32.245Z,70.04
2022-09-09T03:23:58.821Z,70.18
2022-09-09T03:26:24.910Z,70.18
2022-09-09T03:28:51.031Z,70.31
2022-09-09T03:31:17.162Z,70.46
2022-09-09T03:33:43.290Z,70.39
2022-09-09T03:36:09.386Z,70.31
2022-09-09T03:38:35.662Z,70.26
2022-09-09T03:41:01.908Z,70.49
2022-09-09T03:43:28.020Z,70.66
2022-09-09T03:45:54.177Z,70.99
2022-09-09T03:48:20.302Z,71.05
2022-09-09T03:50:46.390Z,71.15
2022-09-09T03:53:12.501Z,71.19
2022-09-09T03:55:38.590Z,71.19
2022-09-09T03:58:04.693Z,71.45
2022-09-09T04:00:30.798Z,71.45
2022-09-09T04:02:56.889Z,71.52
2022-09-09T04:05:22.990Z,71.69
2022-09-09T04:07:49.149Z,71.88
2022-09-09T04:10:15.239Z,71.81
2022-09-09T04:12:41.328Z,71.91
2022-09-09T04:15:07.438Z,72.04
2022-09-09T04:17:33.522Z,72.19
2022-09-09T04:19:59.621Z,72.31
2022-09-09T04:22:25.730Z,72.30
2022-09-09T04:24:51.829Z,72.24
2022-09-09T04:27:17.920Z,72.19
2022-09-09T04:29:44.027Z,72.38
2022-09-09T04:32:10.118Z,72.51
2022-09-09T04:34:36.206Z,72.46
2022-09-09T04:37:02.331Z,72.54
2022-09-09T04:39:28.428Z,72.57
2022-09-09T04:41:54.516Z,72.65
2022-09-09T04:44:20.613Z,72.71
2022-09-09T04:46:46.702Z,72.49
2022-09-09T04:49:15.166Z,72.57
2022-09-09T04:51:41.548Z,72.75
2022-09-09T04:54:07.645Z,72.67
2022-09-09T04:56:33.744Z,72.72
2022-09-09T04:58:59.851Z,72.67
2022-09-09T05:01:26.038Z,72.49
2022-09-09T05:03:52.170Z,72.68
2022-09-09T05:06:18.272Z,72.41
2022-09-09T05:08:44.386Z,72.44
2022-09-09T05:11:10.476Z,72.64
2022-09-09T05:13:40.898Z,72.52
2022-09-09T05:16:07.626Z,72.57
2022-09-09T05:18:33.865Z,72.47
2022-09-09T05:21:00.000Z,72.40
2022-09-09T05:23:26.106Z,72.26
2022-09-09T05:25:52.192Z,72.28
2022-09-09T05:28:18.334Z,72.22
2022-09-09T05:30:44.467Z,72.14
2022-09-09T05:33:10.553Z,72.22
2022-09-09T05:35:36.665Z,72.18
2022-09-09T05:38:02.748Z,72.02
2022-09-09T05:40:28.824Z,72.27
2022-09-09T05:42:54.921Z,72.14
2022-09-09T05:45:21.003Z,72.09
2022-09-09T05:47:47.140Z,72.17
2022-09-09T05:50:13.540Z,72.13
2022-09-09T05:52:39.627Z,72.05
2022-09-09T05:55:05.716Z,71.97
2022-09-09T05:57:31.817Z,71.91
2022-09-09T05:59:57.893Z,71.87
2022-09-09T06:02:24.140Z,71.72
2022-09-09T06:04:50.336Z,71.67
2022-09-09T06:07:16.432Z,71.69
2022-09-09T06:09:42.515Z,71.67
2022-09-09T06:12:08.621Z,71.69
2022-09-09T06:14:34.705Z,71.78
2022-09-09T06:17:00.791Z,71.47
2022-09-09T06:19:26.902Z,71.59
2022-09-09T06:21:53.004Z,71.50
2022-09-09T06:24:19.092Z,71.44
2022-09-09T06:26:45.291Z,71.42
2022-09-09T06:29:11.377Z,71.50
2022-09-09T06:31:37.544Z,71.45
2022-09-09T06:34:03.682Z,71.25
2022-09-09T06:36:29.779Z,71.21
2022-09-09T06:38:55.874Z,71.17
2022-09-09T06:41:21.990Z,71.26
2022-09-09T06:43:48.079Z,71.16
2022-09-09T06:46:14.203Z,71.14
2022-09-09T06:48:40.350Z,71.06
2022-09-09T06:51:06.456Z,70.87
2022-09-09T06:53:32.542Z,71.01
2022-09-09T06:55:58.636Z,71.01
2022-09-09T06:58:24.764Z,70.96
2022-09-09T07:00:50.925Z,71.08
2022-09-09T07:03:17.073Z,71.10
2022-09-09T07:05:43.160Z,71.19
2022-09-09T07:08:09.241Z,71.29
2022-09-09T07:10:35.345Z,71.45
2022-09-09T07:13:01.438Z,71.45
2022-09-09T07:15:27.524Z,71.56
2022-09-09T07:17:53.779Z,71.36
2022-09-09T07:20:19.867Z,71.38
2022-09-09T07:22:45.958Z,71.40
2022-09-09T07:25:12.063Z,71.48
2022-09-09T07:27:38.163Z,71.45
2022-09-09T07:30:04.259Z,71.44
2022-09-09T07:32:30.386Z,71.33
2022-09-09T07:34:56.493Z,71.28
2022-09-09T07:37:22.570Z,71.35
2022-09-09T07:39:48.723Z,71.26
2022-09-09T07:42:14.853Z,71.26
2022-09-09T07:44:40.959Z,71.34
2022-09-09T07:47:07.062Z,71.28
2022-09-09T07:49:33.186Z,71.37
2022-09-09T07:51:59.299Z,71.44
2022-09-09T07:54:25.972Z,71.31
2022-09-09T07:56:52.089Z,71.16
2022-09-09T07:59:18.165Z,71.28
2022-09-09T08:01:44.336Z,71.13
2022-09-09T08:04:10.470Z,71.17
2022-09-09T08:06:36.556Z,70.84
2022-09-09T08:09:02.670Z,70.83
2022-09-09T08:11:28.757Z,70.71
2022-09-09T08:13:57.896Z,70.53
2022-09-09T08:16:26.417Z,70.53
2022-09-09T08:18:52.502Z,70.30
2022-09-09T08:21:18.591Z,69.89
2022-09-09T08:23:44.834Z,69.72
2022-09-09T08:26:10.928Z,69.46
2022-09-09T08:28:37.046Z,69.32
2022-09-09T08:31:03.229Z,68.88
2022-09-09T08:33:29.520Z,68.53
2022-09-09T08:35:55.666Z,68.54
2022-09-09T08:38:21.757Z,68.28
2022-09-09T08:40:47.856Z,67.94
2022-09-09T08:43:13.976Z,67.86
2022-09-09T08:45:40.105Z,67.70
2022-09-09T08:48:06.206Z,67.50
2022-09-09T08:50:32.294Z,67.17
2022-09-09T08:52:58.559Z,66.93
2022-09-09T08:55:24.682Z,66.42
2022-09-09T08:57:50.771Z,66.29
2022-09-09T09:00:16.955Z,65.55
2022-09-09T09:02:43.130Z,65.20
2022-09-09T09:05:09.254Z,64.99
2022-09-09T09:07:35.461Z,64.62
2022-09-09T09:10:01.547Z,64.14
2022-09-09T09:12:27.639Z,63.81
2022-09-09T09:14:53.746Z,63.74
2022-09-09T09:17:19.828Z,63.70
2022-09-09T09:19:45.923Z,63.51
2022-09-09T09:22:12.038Z,63.17
2022-09-09T09:24:38.126Z,62.95
2022-09-09T09:27:04.250Z,62.85
2022-09-09T09:29:30.384Z,62.81
2022-09-09T09:31:56.478Z,62.83
2022-09-09T09:34:22.569Z,62.81
2022-09-09T09:36:48.714Z,62.69
2022-09-09T09:42:03.880Z,62.41
2022-09-09T09:44:32.644Z,61.92
2022-09-09T09:46:58.783Z,61.77
2022-09-09T09:49:24.919Z,61.66
2022-09-09T09:51:51.010Z,61.57
2022-09-09T09:54:17.137Z,61.08
2022-09-09T09:56:43.265Z,60.90
2022-09-09T09:59:17.885Z,60.69
2022-09-09T10:01:49.773Z,60.31
2022-09-09T10:04:15.926Z,59.98
2022-09-09T10:06:42.048Z,59.60
2022-09-09T10:09:08.154Z,59.05
2022-09-09T10:11:34.259Z,58.49
2022-09-09T10:14:00.340Z,58.17
2022-09-09T10:16:26.437Z,57.91
2022-09-09T10:18:52.532Z,57.69
2022-09-09T10:21:18.620Z,57.39
2022-09-09T10:23:44.741Z,57.01
2022-09-09T10:26:10.856Z,56.71
2022-09-09T10:28:37.134Z,55.93
2022-09-09T10:31:03.825Z,55.43
2022-09-09T10:33:30.038Z,55.18
2022-09-09T10:35:56.166Z,54.75
2022-09-09T10:38:22.261Z,54.60
2022-09-09T10:40:48.351Z,54.03
2022-09-09T10:43:14.456Z,53.40
2022-09-09T10:45:40.582Z,53.33
2022-09-09T10:48:06.667Z,53.26
2022-09-09T10:50:59.975Z,52.49
2022-09-09T10:53:18.858Z,52.69
2022-09-09T10:55:44.966Z,52.69
2022-09-09T10:58:11.061Z,52.48
2022-09-09T11:00:37.449Z,52.47
2022-09-09T11:03:03.538Z,52.07
2022-09-09T11:05:29.630Z,52.22
2022-09-09T11:07:55.757Z,52.19
2022-09-09T11:10:21.919Z,52.33
2022-09-09T11:12:48.007Z,53.08
2022-09-09T11:15:14.156Z,54.52
2022-09-09T11:17:40.243Z,55.52
2022-09-09T11:20:06.338Z,56.66
2022-09-09T11:22:32.481Z,57.62
2022-09-09T11:24:58.607Z,58.17
2022-09-09T11:27:24.751Z,58.59
2022-09-09T11:29:50.879Z,58.86
2022-09-09T11:32:17.000Z,59.40
2022-09-09T11:34:43.132Z,59.58
2022-09-09T11:37:09.752Z,59.50
2022-09-09T11:39:35.864Z,59.42
2022-09-09T11:42:02.008Z,59.09
2022-09-09T11:44:28.171Z,58.46
2022-09-09T11:46:54.316Z,57.73
2022-09-09T11:49:20.417Z,56.89
2022-09-09T11:51:46.539Z,55.85
2022-09-09T11:54:12.650Z,55.45
2022-09-09T11:56:38.796Z,54.65
2022-09-09T11:59:04.998Z,54.54
2022-09-09T12:01:31.091Z,54.11
2022-09-09T12:03:57.221Z,53.85
2022-09-09T12:06:23.416Z,53.64
2022-09-09T12:08:49.534Z,53.29
2022-09-09T12:11:15.626Z,53.08
2022-09-09T12:13:41.729Z,52.39
2022-09-09T12:16:07.808Z,51.92
2022-09-09T12:18:33.969Z,51.92
2022-09-09T12:21:00.101Z,51.23
2022-09-09T12:23:26.196Z,51.10
2022-09-09T12:25:52.292Z,50.76
2022-09-09T12:28:18.414Z,50.54
2022-09-09T12:30:44.586Z,50.24
2022-09-09T12:33:10.683Z,49.67
2022-09-09T12:35:36.784Z,49.52
2022-09-09T12:38:02.878Z,49.13
2022-09-09T12:40:28.978Z,48.89
2022-09-09T12:42:55.138Z,49.02
2022-09-09T12:45:21.242Z,49.07
2022-09-09T12:47:47.329Z,49.04
2022-09-09T12:50:13.459Z,48.33
2022-09-09T12:52:39.561Z,48.15
2022-09-09T12:55:05.664Z,47.99
2022-09-09T12:57:31.778Z,48.08
2022-09-09T12:59:57.869Z,48.06
2022-09-09T13:02:24.000Z,48.05
2022-09-09T13:04:50.251Z,47.99
2022-09-09T13:07:16.366Z,47.96
2022-09-09T13:09:42.455Z,47.99
2022-09-09T13:12:08.573Z,47.75
2022-09-09T13:14:34.670Z,47.44
2022-09-09T13:17:00.898Z,47.35
2022-09-09T13:19:27.047Z,47.22
2022-09-09T13:21:53.141Z,47.18
2022-09-09T13:24:19.245Z,47.28
2022-09-09T13:26:45.345Z,46.74
2022-09-09T13:29:11.565Z,46.76
2022-09-09T13:31:37.645Z,46.79
2022-09-09T13:34:03.737Z,47.01
2022-09-09T13:36:29.825Z,46.81
2022-09-09T13:38:55.905Z,46.94
2022-09-09T13:41:22.095Z,46.75
2022-09-09T13:43:48.198Z,46.61
2022-09-09T13:46:14.354Z,46.43
2022-09-09T13:48:40.505Z,46.69
2022-09-09T13:51:06.584Z,46.66
2022-09-09T13:53:32.734Z,46.83
2022-09-09T13:55:58.891Z,46.34
2022-09-09T13:58:24.990Z,46.29
2022-09-09T14:00:51.140Z,46.23
2022-09-09T14:03:17.274Z,46.42
2022-09-09T14:05:43.355Z,46.49
2022-09-09T14:08:09.459Z,46.86
2022-09-09T14:10:35.571Z,46.90
2022-09-09T14:13:01.669Z,46.76
2022-09-09T14:15:27.749Z,46.69
2022-09-09T14:17:53.875Z,46.79
2022-09-09T14:20:19.966Z,46.87
2022-09-09T14:22:46.062Z,47.57
2022-09-09T14:25:12.176Z,48.65
2022-09-09T14:27:38.290Z,49.11
2022-09-09T14:30:04.378Z,49.26
2022-09-09T14:32:30.482Z,49.74
2022-09-09T14:34:56.572Z,50.18
2022-09-09T14:37:22.677Z,50.33
2022-09-09T14:39:48.828Z,50.34
2022-09-09T14:42:14.978Z,50.52
2022-09-09T14:44:41.064Z,50.79
2022-09-09T14:47:07.528Z,51.03
2022-09-09T14:49:33.618Z,51.25
2022-09-09T14:51:59.730Z,52.03
2022-09-09T14:54:25.859Z,53.26
2022-09-09T14:56:51.951Z,54.16
2022-09-09T14:59:18.034Z,54.69
2022-09-09T15:01:44.206Z,55.17
2022-09-09T15:04:10.379Z,55.68
2022-09-09T15:06:36.482Z,55.84
2022-09-09T15:09:02.587Z,55.83
2022-09-09T15:11:28.668Z,55.85
2022-09-09T15:13:54.769Z,55.98
2022-09-09T15:16:20.921Z,56.09
2022-09-09T15:18:47.060Z,56.31
2022-09-09T15:21:13.149Z,56.43
2022-09-09T15:23:39.265Z,56.54
2022-09-09T15:26:05.362Z,56.81
2022-09-09T15:28:31.471Z,57.14
2022-09-09T15:30:57.833Z,57.32
2022-09-09T15:33:23.999Z,57.51
2022-09-09T15:35:50.106Z,57.71
2022-09-09T15:38:16.221Z,57.84
2022-09-09T15:40:42.313Z,58.16
2022-09-09T15:43:08.418Z,58.59
2022-09-09T15:45:34.518Z,58.72
2022-09-09T15:48:00.607Z,59.15
2022-09-09T15:50:26.698Z,61.56
2022-09-09T15:52:53.137Z,64.21
2022-09-09T15:55:19.228Z,65.97
2022-09-09T15:57:45.317Z,66.96
2022-09-09T16:00:11.444Z,67.34
2022-09-09T16:02:38.116Z,67.61
2022-09-09T16:05:04.311Z,67.47
2022-09-09T16:07:30.414Z,67.03
2022-09-09T16:09:56.493Z,66.51
2022-09-09T16:12:22.583Z,66.27
2022-09-09T16:14:48.701Z,65.87
2022-09-09T16:17:14.811Z,65.85
2022-09-09T16:19:40.905Z,65.48
2022-09-09T16:22:07.024Z,65.57
2022-09-09T16:24:33.166Z,65.44
2022-09-09T16:26:59.264Z,65.35
2022-09-09T16:29:25.376Z,65.18
2022-09-09T16:31:51.470Z,65.20
2022-09-09T16:34:17.548Z,65.07
2022-09-09T16:36:43.661Z,65.08
2022-09-09T16:39:09.746Z,65.12
2022-09-09T16:41:35.833Z,65.21
2022-09-09T16:44:02.442Z,65.33
2022-09-09T16:46:28.664Z,65.45
2022-09-09T16:48:54.881Z,65.52
2022-09-09T16:51:21.000Z,65.54
2022-09-09T16:53:47.094Z,65.60
2022-09-09T16:56:13.180Z,65.70
2022-09-09T16:58:39.311Z,66.03
2022-09-09T17:01:05.415Z,66.10
2022-09-09T17:03:31.508Z,66.09
2022-09-09T17:05:57.613Z,66.18
2022-09-09T17:08:23.696Z,66.23
2022-09-09T17:10:49.800Z,66.36
2022-09-09T17:13:15.905Z,66.43
2022-09-09T17:15:42.017Z,66.51
2022-09-09T17:18:08.137Z,66.84
2022-09-09T17:20:45.994Z,66.83
2022-09-09T17:23:13.196Z,67.06
2022-09-09T17:25:39.305Z,67.09
2022-09-09T17:28:05.402Z,67.06
2022-09-09T17:30:31.503Z,67.02
2022-09-09T17:32:57.624Z,66.94
2022-09-09T17:35:23.870Z,67.19
2022-09-09T17:37:49.970Z,67.45
2022-09-09T17:40:16.139Z,67.50
2022-09-09T17:42:42.303Z,67.72
2022-09-09T17:45:08.434Z,67.80
2022-09-09T17:47:34.538Z,68.00
2022-09-09T17:50:00.664Z,67.77
2022-09-09T17:52:26.753Z,67.72
2022-09-09T17:54:52.862Z,67.84
2022-09-09T17:57:18.976Z,67.86
2022-09-09T17:59:45.088Z,68.02
2022-09-09T18:02:11.775Z,68.12
2022-09-09T18:04:37.898Z,68.45
2022-09-09T18:07:03.992Z,68.46
2022-09-09T18:09:30.102Z,68.86
2022-09-09T18:11:56.215Z,68.78
2022-09-09T18:14:22.311Z,69.02
2022-09-09T18:16:48.445Z,69.25
2022-09-09T18:19:14.584Z,69.25
2022-09-09T18:21:40.687Z,69.54
2022-09-09T18:24:06.803Z,69.56
2022-09-09T18:26:32.897Z,69.63
2022-09-09T18:28:58.989Z,69.71
2022-09-09T18:31:25.252Z,69.62
2022-09-09T18:33:51.413Z,69.66
2022-09-09T18:36:17.522Z,69.70
2022-09-09T18:38:43.631Z,69.82
2022-09-09T18:41:09.721Z,69.79
2022-09-09T18:43:35.818Z,69.92
2022-09-09T18:46:01.981Z,70.09
2022-09-09T18:48:28.096Z,70.45
2022-09-09T18:50:54.186Z,70.70
2022-09-09T18:53:20.295Z,70.73
2022-09-09T18:55:46.386Z,70.78
2022-09-09T18:58:12.473Z,70.87
2022-09-09T19:00:38.597Z,70.88
2022-09-09T19:03:04.696Z,70.85
2022-09-09T19:05:30.788Z,71.09
2022-09-09T19:07:56.890Z,71.14
2022-09-09T19:10:22.992Z,71.19
2022-09-09T19:12:49.259Z,71.14
2022-09-09T19:15:15.435Z,71.31
2022-09-09T19:17:41.521Z,71.27
2022-09-09T19:20:07.654Z,71.47
2022-09-09T19:22:34.125Z,71.53
2022-09-09T19:25:00.240Z,71.61
2022-09-09T19:27:26.350Z,71.55
2022-09-09T19:29:56.792Z,71.84
2022-09-09T19:32:52.320Z,71.76
2022-09-09T19:35:09.293Z,71.83
2022-09-09T19:37:35.396Z,71.86
2022-09-09T19:40:01.547Z,71.84
2022-09-09T19:42:27.723Z,72.15
2022-09-09T19:44:53.829Z,72.10
2022-09-09T19:47:19.934Z,72.35
2022-09-09T19:49:47.429Z,72.26
2022-09-09T19:52:13.792Z,72.53
2022-09-09T19:54:39.900Z,72.82
2022-09-09T19:57:06.012Z,73.04
2022-09-09T19:59:32.105Z,73.07
2022-09-09T20:01:58.257Z,73.50
2022-09-09T20:04:24.474Z,73.36
2022-09-09T20:06:50.573Z,73.49
2022-09-09T20:09:16.662Z,73.69
2022-09-09T20:11:43.066Z,73.80
2022-09-09T20:14:09.161Z,73.78
2022-09-09T20:16:35.268Z,73.78
2022-09-09T20:19:01.395Z,73.88
2022-09-09T20:21:27.484Z,73.94
2022-09-09T20:23:53.602Z,74.05
2022-09-09T20:26:20.070Z,74.23
2022-09-09T20:28:46.153Z,74.35
2022-09-09T20:31:12.274Z,74.55
2022-09-09T20:33:38.434Z,74.43
2022-09-09T20:36:04.525Z,74.32
2022-09-09T20:38:30.717Z,74.42
2022-09-09T20:40:56.840Z,74.08
2022-09-09T20:43:22.913Z,74.35
2022-09-09T20:45:49.011Z,74.46
2022-09-09T20:48:15.127Z,74.47
2022-09-09T20:50:41.214Z,74.50
2022-09-09T20:53:07.294Z,74.51
2022-09-09T20:55:33.932Z,74.62
2022-09-09T20:58:00.024Z,74.35
2022-09-09T21:00:26.108Z,74.62
2022-09-09T21:02:52.211Z,74.70
2022-09-09T21:05:22.022Z,74.59
2022-09-09T21:07:50.122Z,74.67
2022-09-09T21:10:16.224Z,74.76
2022-09-09T21:12:42.318Z,74.92
2022-09-09T21:15:08.400Z,74.94
2022-09-09T21:17:34.503Z,75.00
2022-09-09T21:20:00.581Z,75.01
2022-09-09T21:22:26.672Z,75.03
2022-09-09T21:24:52.782Z,75.09
2022-09-09T21:27:18.912Z,75.13
2022-09-09T21:29:45.025Z,74.93
2022-09-09T21:32:11.134Z,74.83
2022-09-09T21:34:37.243Z,75.12
2022-09-09T21:37:03.333Z,75.14
2022-09-09T21:39:29.580Z,75.13
2022-09-09T21:41:55.690Z,75.34
2022-09-09T21:44:21.790Z,75.20
2022-09-09T21:46:47.971Z,75.31
2022-09-09T21:49:14.083Z,75.27
2022-09-09T21:51:40.168Z,75.33
2022-09-09T21:54:06.278Z,75.19
2022-09-09T21:56:32.361Z,75.26
2022-09-09T21:58:58.456Z,75.37
2022-09-09T22:01:24.662Z,75.40
2022-09-09T22:03:50.765Z,75.58
2022-09-09T22:06:16.849Z,75.46
2022-09-09T22:08:42.955Z,75.77
2022-09-09T22:11:09.050Z,75.82
2022-09-09T22:13:35.147Z,75.83
2022-09-09T22:16:01.302Z,75.87
2022-09-09T22:18:27.420Z,75.83
2022-09-09T22:20:53.511Z,75.96
2022-09-09T22:23:19.910Z,75.70
2022-09-09T22:25:46.005Z,75.74
2022-09-09T22:28:12.110Z,75.57
2022-09-09T22:30:38.252Z,75.62
2022-09-09T22:33:04.336Z,75.77
2022-09-09T22:35:30.520Z,75.75
2022-09-09T22:37:56.630Z,75.77
2022-09-09T22:40:22.736Z,75.66
2022-09-09T22:42:52.518Z,75.63
2022-09-09T22:45:19.128Z,75.48
2022-09-09T22:47:45.246Z,75.54
2022-09-09T22:50:11.344Z,75.61
2022-09-09T22:52:37.455Z,75.60
2022-09-09T22:55:03.562Z,75.29
2022-09-09T22:57:29.654Z,75.24
2022-09-09T22:59:55.757Z,75.30
2022-09-09T23:02:21.860Z,74.99
2022-09-09T23:04:47.961Z,75.08
2022-09-09T23:07:14.057Z,75.00
2022-09-09T23:09:40.142Z,74.91
2022-09-09T23:12:06.240Z,74.91
2022-09-09T23:14:32.336Z,74.86
2022-09-09T23:16:58.464Z,74.71
2022-09-09T23:19:24.558Z,74.72
2022-09-09T23:21:50.712Z,74.70
2022-09-09T23:24:16.824Z,74.59
2022-09-09T23:26:42.911Z,74.55
2022-09-09T23:29:09.018Z,74.37
2022-09-09T23:31:35.122Z,74.35
2022-09-09T23:34:01.230Z,74.33
2022-09-09T23:36:27.321Z,74.30
2022-09-09T23:38:53.415Z,74.20
2022-09-09T23:41:19.518Z,74.24
2022-09-09T23:43:45.624Z,74.20
2022-09-09T23:46:11.757Z,74.13
2022-09-09T23:48:37.953Z,74.19
2022-09-09T23:51:04.143Z,74.39
2022-09-09T23:53:30.245Z,74.19
2022-09-09T23:55:56.334Z,73.89
2022-09-09T23:58:22.497Z,73.88
